Flight Track Log - Related Links

Times and Time Zones

All times are in EST time to prevent confusion due to time zone crossing. See the UPS1295 flight status page for this flight to view local times or setup timezone preferences in your user account.

Time Position Orientation Groundspeed Altitude Reporting Facility
EST Latitude Longitude Course Direction KTS MPH feet Rate Location/Type
Tue 11:24:38 PM 34.9710 -82.1540 34° Northeast 213 245 6,500  Level FlightAware ADS-B
Tue 11:25:11 PM 34.9980 -82.1310 35° Northeast 236 272 8,100 2,893 Climbing FlightAware ADS-B
Tue 11:25:34 PM 35.0200 -82.1100 38° Northeast 249 287 9,200 1,962 Climbing FlightAware ADS-B
Tue 11:26:03 PM 35.0480 -82.0850 36° Northeast 282 325 9,800 1,083 Climbing FlightAware ADS-B
Tue 11:26:46 PM 35.0960 -82.0420 36° Northeast 300 345 10,500 404 Climbing FlightAware ADS-B
Tue 11:27:47 PM 35.1640 -81.9790 37° Northeast 298 343 10,500  Level FlightAware ADS-B
Tue 11:28:10 PM 35.1910 -81.9590 31° Northeast 292 336 10,500  Level FlightAware ADS-B
Tue 11:28:25 PM 35.2110 -81.9550 North 285 328 10,500  Level FlightAware ADS-B
Tue 11:28:55 PM 35.2480 -81.9710 341° North 280 322 10,500 148 Level FlightAware ADS-B
Tue 11:29:46 PM 35.2960 -82.0280 316° Northwest 290 334 10,700 1,778 Climbing FlightAware ADS-B
Tue 11:30:43 PM 35.3570 -82.0970 317° Northwest 331 381 13,700 3,876 Climbing FlightAware ADS-B
Tue 11:31:39 PM 35.4200 -82.1730 315° West 345 397 18,000 4,255 Climbing FlightAware ADS-B
Tue 11:32:33 PM 35.4837 -82.2489 316° Northwest 356 410 21,500 3,247 Climbing FlightAware ADS-B
Tue 11:33:04 PM 35.5200 -82.2934 315° West 374 430 22,600 1,821 Climbing FlightAware ADS-B
Tue 11:33:29 PM 35.5519 -82.3313 316° Northwest 378 435 23,200 3,055 Climbing FlightAware ADS-B
Tue 11:33:59 PM 35.5891 -82.3751 316° Northwest 367 422 25,400 3,800 Climbing FlightAware ADS-B
Tue 11:34:29 PM 35.6257 -82.4193 316° Northwest 361 415 27,000 2,262 Climbing FlightAware ADS-B
Tue 11:35:00 PM 35.6608 -82.4622 315° West 350 403 27,700 885 Climbing FlightAware ADS-B
Tue 11:35:30 PM 35.6958 -82.5042 316° Northwest 345 397 27,900 290 Climbing FlightAware ADS-B
Tue 11:36:02 PM 35.7320 -82.5482 315° West 345 397 28,000 77 Climbing FlightAware ADS-B
Tue 11:36:48 PM 35.7841 -82.6118 315° West 346 398 28,000  Level FlightAware ADS-B
Tue 11:37:22 PM 35.8241 -82.6602 316° Northwest 349 402 28,000  Level FlightAware ADS-B
Tue 11:37:52 PM 35.8620 -82.7061 316° Northwest 396 456 28,000  Level FlightAware ADS-B
Tue 11:38:23 PM 35.9029 -82.7556 316° Northwest 406 467 28,000  Level FlightAware ADS-B
Tue 11:38:53 PM 35.9436 -82.8048 316° Northwest 410 472 28,000  Level FlightAware ADS-B
Tue 11:39:23 PM 35.9846 -82.8547 315° West 414 476 28,000  Level FlightAware ADS-B
Tue 11:39:54 PM 36.0265 -82.9057 315° West 419 482 28,000  Level FlightAware ADS-B
Tue 11:40:24 PM 36.0681 -82.9563 315° West 420 483 28,000  Level FlightAware ADS-B
Tue 11:40:55 PM 36.1115 -83.0094 315° West 422 486 28,000  Level FlightAware ADS-B
Tue 11:41:26 PM 36.1538 -83.0612 315° West 425 489 28,000  Level FlightAware ADS-B
Tue 11:41:53 PM 36.1922 -83.1082 315° West 427 491 28,000  Level FlightAware ADS-B
Tue 11:42:23 PM 36.2346 -83.1603 315° West 429 494 28,000  Level FlightAware ADS-B
Tue 11:42:54 PM 36.2779 -83.2134 315° West 430 495 28,000  Level FlightAware ADS-B
Tue 11:43:24 PM 36.3206 -83.2660 315° West 431 496 28,000  Level FlightAware ADS-B
Tue 11:43:55 PM 36.3644 -83.3203 315° West 432 497 28,000  Level FlightAware ADS-B
Tue 11:44:27 PM 36.4094 -83.3757 315° West 431 496 28,000  Level FlightAware ADS-B
Tue 11:44:57 PM 36.4521 -83.4284 315° West 431 496 28,000  Level FlightAware ADS-B
Tue 11:45:27 PM 36.4945 -83.4810 315° West 429 494 28,000  Level FlightAware ADS-B
Tue 11:45:57 PM 36.5366 -83.5334 315° West 428 493 28,000  Level FlightAware ADS-B
Tue 11:46:27 PM 36.5793 -83.5864 315° West 426 490 28,000  Level FlightAware ADS-B
Tue 11:46:59 PM 36.6232 -83.6411 315° West 424 488 28,000  Level FlightAware ADS-B
Tue 11:47:29 PM 36.6651 -83.6934 315° West 423 487 28,000  Level FlightAware ADS-B
Tue 11:48:08 PM 36.7186 -83.7602 315° West 422 486 28,000  Level FlightAware ADS-B
Tue 11:48:43 PM 36.7675 -83.8214 315° West 422 486 28,000  Level FlightAware ADS-B
Tue 11:49:14 PM 36.8090 -83.8735 315° West 421 484 28,000  Level FlightAware ADS-B
Tue 11:49:45 PM 36.8518 -83.9273 315° West 421 484 28,000  Level FlightAware ADS-B
Tue 11:50:32 PM 36.9164 -84.0088 315° West 421 484 28,000  Level FlightAware ADS-B
Tue 11:51:21 PM 36.9840 -84.0940 315° West 422 486 28,000  Level FlightAware ADS-B
Tue 11:51:53 PM 37.0276 -84.1491 315° West 423 487 28,000  Level FlightAware ADS-B
Tue 11:52:40 PM 37.0930 -84.2322 315° West 423 487 28,000 -733 Level FlightAware ADS-B
Tue 11:53:23 PM 37.1518 -84.3072 315° West 414 476 26,900 -2,562 Descending FlightAware ADS-B
Tue 11:54:09 PM 37.2128 -84.3847 315° West 409 471 24,200 -3,351 Descending FlightAware ADS-B
Tue 11:54:40 PM 37.2529 -84.4357 315° West 402 463 22,600 -3,049 Descending FlightAware ADS-B
Tue 11:55:10 PM 37.2917 -84.4855 314° West 391 450 21,100 -2,800 Descending FlightAware ADS-B
Tue 11:55:40 PM 37.3293 -84.5338 314° West 379 436 19,800 -2,656 Descending FlightAware ADS-B
Tue 11:56:11 PM 37.3663 -84.5813 314° West 368 423 18,400 -2,734 Descending FlightAware ADS-B
Tue 11:56:59 PM 37.4240 -84.6550 315° West 356 410 16,200 -2,765 Descending FlightAware ADS-B
Tue 11:57:53 PM 37.4830 -84.7320 314° West 320 368 13,700 -3,055 Descending FlightAware ADS-B
Tue 11:58:49 PM 37.5400 -84.8050 315° West 309 356 10,600 -2,929 Descending FlightAware ADS-B
Tue 11:59:17 PM 37.5660 -84.8390 314° West 281 323 9,600 -1,714 Descending FlightAware ADS-B
Tue 11:59:45 PM 37.5890 -84.8690 314° West 257 296 9,000 -1,364 Descending FlightAware ADS-B
Wed 12:00:23 AM 37.6210 -84.9100 315° West 251 289 8,100 -1,455 Descending FlightAware ADS-B
Wed 12:00:51 AM 37.6440 -84.9400 314° West 250 288 7,400 -800 Descending FlightAware ADS-B
Wed 12:01:23 AM 37.6700 -84.9740 314° West 255 293 7,300 -94 Descending FlightAware ADS-B
Wed 12:01:55 AM 37.6960 -85.0100 312° West 254 292 7,300  Level FlightAware ADS-B
Wed 12:02:19 AM 37.7140 -85.0360 311° West 255 293 7,300 -300 Level FlightAware ADS-B
Wed 12:02:55 AM 37.7420 -85.0760 312° West 254 292 7,000 -571 Descending FlightAware ADS-B
Wed 12:03:22 AM 37.7570 -85.1120 298° West 258 297 6,700 -655 Descending FlightAware ADS-B
Wed 12:03:50 AM 37.7720 -85.1500 297° West 257 296 6,400 -692 Descending FlightAware ADS-B
Wed 12:04:14 AM 37.7850 -85.1820 297° West 255 293 6,100 -735 Descending FlightAware ADS-B
Wed 12:04:39 AM 37.7980 -85.2150 297° West 258 297 5,800 -625 Descending FlightAware ADS-B
Wed 12:05:02 AM 37.8110 -85.2460 298° West 259 298 5,600 -652 Descending FlightAware ADS-B
Wed 12:05:25 AM 37.8220 -85.2760 295° West 256 295 5,300 -700 Descending FlightAware ADS-B
Wed 12:06:02 AM 37.8420 -85.3260 297° West 254 292 4,900 -581 Descending FlightAware ADS-B
Wed 12:06:27 AM 37.8550 -85.3570 298° West 257 296 4,700 -545 Descending FlightAware ADS-B
Wed 12:06:57 AM 37.8700 -85.3980 295° West 256 295 4,400 -600 Descending FlightAware ADS-B
Wed 12:07:07 AM 37.8720 -85.4110 281° West 259 298 4,300 -698 Descending FlightAware ADS-B
Wed 12:07:40 AM 37.8620 -85.4630 256° West 262 302 3,900 -771 Descending FlightAware ADS-B
Wed 12:08:17 AM 37.8500 -85.5180 255° West 260 299 3,400 -882 Descending FlightAware ADS-B
Wed 12:08:48 AM 37.8420 -85.5610 257° West 259 298 2,900 -984 Descending FlightAware ADS-B
Wed 12:09:18 AM 37.8440 -85.6040 273° West 240 276 2,400 -545 Descending FlightAware ADS-B
Wed 12:09:43 AM 37.8650 -85.6200 329° Northwest 212 244 2,400 -120 Level FlightAware ADS-B
Wed 12:10:08 AM 37.8850 -85.6300 338° Northwest 193 222 2,300 -100 Descending FlightAware ADS-B
Wed 12:10:43 AM 37.9130 -85.6390 346° North 161 185 2,300  Level FlightAware ADS-B
Wed 12:11:03 AM 37.9280 -85.6430 348° North 162 186 2,300  Level FlightAware ADS-B
Wed 12:11:37 AM 37.9540 -85.6520 345° North 161 185 2,300  Level FlightAware ADS-B
Wed 12:12:07 AM 37.9760 -85.6600 344° North 161 185 2,300  Level FlightAware ADS-B
Wed 12:12:35 AM 37.9970 -85.6660 347° North 163 188 2,300  Level FlightAware ADS-B
Wed 12:12:59 AM 38.0140 -85.6720 344° North 161 185 2,300 136 Level FlightAware ADS-B
Wed 12:13:19 AM 38.0280 -85.6770 344° North 161 185 2,400 -97 Climbing FlightAware ADS-B
Wed 12:14:01 AM 38.0590 -85.6880 344° North 160 184 2,200 -583 Descending FlightAware ADS-B
Wed 12:14:31 AM 38.0800 -85.6950 345° North 145 167 1,700 -871 Descending FlightAware ADS-B
Wed 12:15:03 AM 38.0990 -85.7010 346° North 123 142 1,300 -692 Descending FlightAware ADS-B
Wed 12:15:23 AM 38.1090 -85.7050 343° North 116 133 1,100 -625 Descending FlightAware ADS-B
Wed 12:15:51 AM 38.1240 -85.7100 345° North 116 133 800 -750 Descending FlightAware ADS-B
Wed 12:16:11 AM 38.1350 -85.7130 348° North 119 137 500 -692 Descending FlightAware ADS-B
Wed 12:16:43 AM 38.1520 -85.7190 344° North 124 143 200 -563 Descending FlightAware ADS-B
Wed 12:17:07 AM 38.1660 -85.7240 344° North 130 150 -500 Descending FlightAware ADS-B

Login

Don't have an account? Register now (free) for customized features, flight alerts, and more!